Time;durP1;ratioP1;P1;durP2;ratioP2;P2;SDS_P1;SDS_P2;PMS_P1;PMS_P2;Temp;Humidity;BMP_temperature;BMP_pressure;BME280_temperature;BME280_humidity;BME280_pressure;Samples;Min_cycle;Max_cycle;Signal;HPM_P1;HPM_P2
2022/11/26 00:00:24;;;;;;;573.53;116.00;;;;;;;;;;4989911;28;20175;-77
2022/11/26 00:02:51;;;;;;;472.77;106.43;;;;;;;;;;5010434;28;20182;-76
2022/11/26 00:05:17;;;;;;;534.13;111.70;;;;;;;;;;5003612;28;20187;-76
2022/11/26 00:07:46;;;;;;;525.83;111.57;;;;;;;;;;5010155;28;20195;-76
2022/11/26 00:10:20;;;;;;;448.03;104.03;;;;;;;;;;5011111;28;20187;-76
2022/11/26 00:12:47;;;;;;;452.27;102.57;;;;;;;;;;4987889;28;20187;-76
2022/11/26 00:15:17;;;;;;;500.47;105.10;;;;;;;;;;4994427;28;20721;-76
2022/11/26 00:17:43;;;;;;;401.93;98.90;;;;;;;;;;5011031;28;20266;-75
2022/11/26 00:20:10;;;;;;;490.50;106.50;;;;;;;;;;4994061;28;20643;-76
2022/11/26 00:22:41;;;;;;;687.00;124.47;;;;;;;;;;5000006;28;20227;-77
2022/11/26 00:25:13;;;;;;;545.77;117.13;;;;;;;;;;4986213;28;20198;-77
2022/11/26 00:27:39;;;;;;;537.13;115.43;;;;;;;;;;5010702;28;20191;-76
2022/11/26 00:30:13;;;;;;;469.33;106.87;;;;;;;;;;5014593;28;20241;-77
2022/11/26 00:32:39;;;;;;;491.93;109.10;;;;;;;;;;4997112;28;20175;-76
2022/11/26 00:35:05;;;;;;;503.27;111.30;;;;;;;;;;4996152;28;20190;-75
2022/11/26 00:37:42;;;;;;;649.90;121.43;;;;;;;;;;4993906;28;20233;-77
2022/11/26 00:40:17;;;;;;;630.17;121.67;;;;;;;;;;5015602;28;20186;-76
2022/11/26 00:42:43;;;;;;;461.43;106.60;;;;;;;;;;5012785;28;20236;-77
2022/11/26 00:45:17;;;;;;;456.00;106.40;;;;;;;;;;4982386;28;20274;-76
2022/11/26 00:47:43;;;;;;;459.07;109.53;;;;;;;;;;4996828;28;20207;-77
2022/11/26 00:50:13;;;;;;;454.00;103.20;;;;;;;;;;5015377;28;20213;-75
2022/11/26 00:52:39;;;;;;;670.50;122.80;;;;;;;;;;5014076;28;20195;-76
2022/11/26 00:58:13;;;;;;;511.23;110.43;;;;;;;;;;5011933;28;20210;-75
2022/11/26 01:00:39;;;;;;;596.87;114.30;;;;;;;;;;5013792;28;20671;-77
2022/11/26 01:03:05;;;;;;;586.23;116.80;;;;;;;;;;5014157;28;20190;-77
2022/11/26 01:05:32;;;;;;;379.20;100.83;;;;;;;;;;5010634;28;20231;-75
2022/11/26 01:08:02;;;;;;;894.13;131.90;;;;;;;;;;4993078;28;20244;-77
2022/11/26 01:10:29;;;;;;;541.17;110.57;;;;;;;;;;5006078;28;20198;-77
2022/11/26 01:12:56;;;;;;;636.87;113.43;;;;;;;;;;5002400;28;20295;-75
2022/11/26 01:15:24;;;;;;;833.20;129.90;;;;;;;;;;4998913;28;20278;-76
2022/11/26 01:17:51;;;;;;;687.63;121.27;;;;;;;;;;5005804;28;20179;-76
2022/11/26 01:20:20;;;;;;;773.40;126.17;;;;;;;;;;5013874;28;20192;-76
2022/11/26 01:22:46;;;;;;;767.87;123.53;;;;;;;;;;5011601;28;20231;-76
2022/11/26 01:25:12;;;;;;;693.70;129.10;;;;;;;;;;5008409;28;20207;-76
2022/11/26 01:27:38;;;;;;;528.30;113.87;;;;;;;;;;5000784;28;20199;-75
2022/11/26 01:30:11;;;;;;;677.83;122.27;;;;;;;;;;4996170;28;20187;-76
2022/11/26 01:32:37;;;;;;;606.50;114.17;;;;;;;;;;4992648;28;20186;-76
2022/11/26 01:38:06;;;;;;;803.60;125.67;;;;;;;;;;5012697;28;20191;-76
2022/11/26 01:40:39;;;;;;;876.30;131.93;;;;;;;;;;5005674;28;20184;-76
2022/11/26 01:43:10;;;;;;;499.27;108.17;;;;;;;;;;5009123;28;20186;-77
2022/11/26 01:45:37;;;;;;;729.17;124.40;;;;;;;;;;5000430;28;20244;-76
2022/11/26 01:48:12;;;;;;;587.50;114.43;;;;;;;;;;4997086;28;20199;-77
2022/11/26 01:50:47;;;;;;;723.70;121.93;;;;;;;;;;5008150;28;20218;-77
2022/11/26 01:53:25;;;;;;;719.50;122.47;;;;;;;;;;4993277;28;20596;-77
2022/11/26 01:55:56;;;;;;;750.10;124.97;;;;;;;;;;5002161;28;20564;-77
2022/11/26 01:58:28;;;;;;;524.47;106.67;;;;;;;;;;4988730;28;20187;-76
2022/11/26 02:00:54;;;;;;;603.40;117.20;;;;;;;;;;5010735;28;20967;-76
2022/11/26 02:03:21;;;;;;;454.23;102.57;;;;;;;;;;4980602;28;20648;-77
2022/11/26 02:05:51;;;;;;;752.00;125.53;;;;;;;;;;5002408;28;20557;-77
2022/11/26 02:08:18;;;;;;;575.00;110.13;;;;;;;;;;5012654;28;20187;-76
2022/11/26 02:10:44;;;;;;;763.13;127.50;;;;;;;;;;4991862;28;20187;-75
2022/11/26 02:13:10;;;;;;;558.93;109.60;;;;;;;;;;4991588;28;20543;-76
2022/11/26 02:15:49;;;;;;;490.93;107.63;;;;;;;;;;4998634;28;20199;-76
2022/11/26 02:18:15;;;;;;;445.50;101.00;;;;;;;;;;5001578;28;20179;-77
2022/11/26 02:20:49;;;;;;;485.80;104.13;;;;;;;;;;4995802;28;20178;-76
2022/11/26 02:23:15;;;;;;;696.57;117.33;;;;;;;;;;4988209;28;20248;-76
2022/11/26 02:25:53;;;;;;;471.57;101.63;;;;;;;;;;4987712;28;20239;-76
2022/11/26 02:28:31;;;;;;;349.67;89.13;;;;;;;;;;4991278;28;20282;-76
2022/11/26 02:31:11;;;;;;;502.43;101.47;;;;;;;;;;4988991;28;20537;-77
2022/11/26 02:33:44;;;;;;;349.53;90.10;;;;;;;;;;4992456;28;20180;-76
2022/11/26 02:36:21;;;;;;;373.33;89.33;;;;;;;;;;4976541;28;20672;-76
2022/11/26 02:38:47;;;;;;;523.80;101.97;;;;;;;;;;4972001;28;20223;-76
2022/11/26 02:41:13;;;;;;;538.57;106.80;;;;;;;;;;4981432;28;20188;-76
2022/11/26 02:43:39;;;;;;;413.37;96.40;;;;;;;;;;4982060;28;20660;-77
2022/11/26 02:46:08;;;;;;;436.33;97.93;;;;;;;;;;4987610;28;20239;-77
2022/11/26 02:48:36;;;;;;;469.40;99.10;;;;;;;;;;4978072;28;20723;-77
2022/11/26 02:51:09;;;;;;;465.67;101.87;;;;;;;;;;4958733;28;20183;-77
2022/11/26 02:53:36;;;;;;;530.70;104.93;;;;;;;;;;4991672;28;20184;-76
2022/11/26 02:56:10;;;;;;;584.67;114.83;;;;;;;;;;4962540;28;20219;-77
2022/11/26 02:58:36;;;;;;;442.80;99.27;;;;;;;;;;4981997;28;20737;-77
2022/11/26 03:01:04;;;;;;;478.13;97.90;;;;;;;;;;4979430;28;20186;-76
2022/11/26 03:03:36;;;;;;;597.87;117.00;;;;;;;;;;4976457;28;20215;-77
2022/11/26 03:06:04;;;;;;;484.90;104.30;;;;;;;;;;4958912;28;20243;-76
2022/11/26 03:08:31;;;;;;;521.40;106.83;;;;;;;;;;4973027;28;20235;-77
2022/11/26 03:10:57;;;;;;;391.97;94.63;;;;;;;;;;4964947;28;20188;-77
2022/11/26 03:13:23;;;;;;;455.00;97.80;;;;;;;;;;4979979;28;20184;-76
2022/11/26 03:15:49;;;;;;;725.30;123.47;;;;;;;;;;4979789;28;20652;-76
2022/11/26 03:18:15;;;;;;;418.53;98.67;;;;;;;;;;4986627;28;20209;-76
2022/11/26 03:20:41;;;;;;;502.60;107.23;;;;;;;;;;4978449;28;20662;-76
2022/11/26 03:23:07;;;;;;;402.43;99.37;;;;;;;;;;4979150;28;20228;-77
2022/11/26 03:25:34;;;;;;;408.17;99.37;;;;;;;;;;4979207;28;20220;-77
2022/11/26 03:28:00;;;;;;;511.27;108.53;;;;;;;;;;4985710;28;20239;-76
2022/11/26 03:30:27;;;;;;;407.37;97.43;;;;;;;;;;4974133;28;20567;-77
2022/11/26 03:32:53;;;;;;;432.67;97.73;;;;;;;;;;4975184;28;20172;-77
2022/11/26 03:35:19;;;;;;;436.30;101.93;;;;;;;;;;4960143;28;20216;-76
2022/11/26 03:37:46;;;;;;;439.10;102.40;;;;;;;;;;4980295;28;20189;-76
2022/11/26 03:40:12;;;;;;;474.27;103.47;;;;;;;;;;4981051;28;20648;-75
2022/11/26 03:42:38;;;;;;;483.07;107.80;;;;;;;;;;4972728;28;20195;-76
2022/11/26 03:45:05;;;;;;;523.87;108.50;;;;;;;;;;4960005;28;20218;-77
2022/11/26 03:47:31;;;;;;;528.30;108.77;;;;;;;;;;4992009;28;20254;-76
2022/11/26 03:49:57;;;;;;;529.57;110.63;;;;;;;;;;4989571;28;20290;-76
2022/11/26 03:52:23;;;;;;;500.67;109.37;;;;;;;;;;4987030;28;20591;-76
2022/11/26 03:54:49;;;;;;;533.00;109.60;;;;;;;;;;4978535;28;20192;-76
2022/11/26 03:57:15;;;;;;;286.07;84.63;;;;;;;;;;4991764;28;20580;-76
2022/11/26 03:59:41;;;;;;;318.33;89.63;;;;;;;;;;4992236;28;20305;-77
2022/11/26 04:02:07;;;;;;;348.37;87.70;;;;;;;;;;4990962;28;20644;-77
2022/11/26 04:04:33;;;;;;;305.47;87.47;;;;;;;;;;4966722;28;20535;-77
2022/11/26 04:06:59;;;;;;;295.00;87.03;;;;;;;;;;4979587;28;20220;-76
2022/11/26 04:09:25;;;;;;;437.10;103.17;;;;;;;;;;4975096;28;20187;-76
2022/11/26 04:11:51;;;;;;;331.03;89.50;;;;;;;;;;4977952;28;20207;-76
2022/11/26 04:14:18;;;;;;;389.27;95.53;;;;;;;;;;4990091;28;20551;-76
2022/11/26 04:16:44;;;;;;;410.37;98.37;;;;;;;;;;4971061;28;20194;-76
2022/11/26 04:19:10;;;;;;;423.47;97.13;;;;;;;;;;4980166;28;20176;-76
2022/11/26 04:21:36;;;;;;;331.50;89.60;;;;;;;;;;4974517;28;20642;-77
2022/11/26 04:24:02;;;;;;;289.93;83.17;;;;;;;;;;4995498;28;20715;-76
2022/11/26 04:26:28;;;;;;;268.10;81.00;;;;;;;;;;4998148;28;20237;-78
2022/11/26 04:28:54;;;;;;;273.87;76.73;;;;;;;;;;4998131;28;20187;-77
2022/11/26 04:31:20;;;;;;;280.70;82.23;;;;;;;;;;4997040;28;20194;-77
2022/11/26 04:33:46;;;;;;;255.60;77.37;;;;;;;;;;4996295;28;20187;-76
2022/11/26 04:36:12;;;;;;;194.87;68.67;;;;;;;;;;4991798;28;20235;-77
2022/11/26 04:38:38;;;;;;;177.13;63.93;;;;;;;;;;4991606;28;20178;-75
2022/11/26 04:41:04;;;;;;;223.13;73.27;;;;;;;;;;4982240;28;20234;-77
2022/11/26 04:43:30;;;;;;;201.63;69.93;;;;;;;;;;5000678;28;20183;-76
2022/11/26 04:45:56;;;;;;;205.80;70.73;;;;;;;;;;5008891;28;21126;-76
2022/11/26 04:48:22;;;;;;;218.27;69.97;;;;;;;;;;4992127;28;20178;-76
2022/11/26 04:50:49;;;;;;;207.33;68.83;;;;;;;;;;5010226;28;20175;-77
2022/11/26 04:53:20;;;;;;;205.83;69.13;;;;;;;;;;5001219;28;20184;-76
2022/11/26 04:55:47;;;;;;;220.00;69.30;;;;;;;;;;5004521;28;20275;-76
2022/11/26 04:58:13;;;;;;;172.27;61.70;;;;;;;;;;5009737;28;20230;-77
2022/11/26 05:00:39;;;;;;;166.40;61.23;;;;;;;;;;4992956;28;20198;-77
2022/11/26 05:03:05;;;;;;;170.20;61.43;;;;;;;;;;5011263;28;20203;-77
2022/11/26 05:05:31;;;;;;;132.93;52.40;;;;;;;;;;5009915;28;20249;-75
2022/11/26 05:07:57;;;;;;;101.00;47.40;;;;;;;;;;4983745;28;20242;-77
2022/11/26 05:10:23;;;;;;;136.13;52.67;;;;;;;;;;4998791;28;20179;-75
2022/11/26 05:12:49;;;;;;;123.63;51.07;;;;;;;;;;4998546;28;20195;-77
2022/11/26 05:15:15;;;;;;;130.57;52.40;;;;;;;;;;4993991;28;20180;-76
2022/11/26 05:17:41;;;;;;;114.40;48.63;;;;;;;;;;5023390;28;20700;-76
2022/11/26 05:20:07;;;;;;;124.37;48.80;;;;;;;;;;4996678;28;20184;-77
2022/11/26 05:22:33;;;;;;;110.87;47.37;;;;;;;;;;5013029;28;20362;-77
2022/11/26 05:24:59;;;;;;;108.90;47.00;;;;;;;;;;5013192;28;20991;-76
2022/11/26 05:27:25;;;;;;;96.17;44.03;;;;;;;;;;4993878;28;20187;-76
2022/11/26 05:29:51;;;;;;;77.70;39.57;;;;;;;;;;4994667;28;20577;-76
2022/11/26 05:32:17;;;;;;;81.33;36.97;;;;;;;;;;4984358;28;20187;-76
2022/11/26 05:34:43;;;;;;;73.27;35.43;;;;;;;;;;5006010;28;20194;-77
2022/11/26 05:37:09;;;;;;;75.67;36.97;;;;;;;;;;4992799;28;20241;-76
2022/11/26 05:39:35;;;;;;;89.47;40.43;;;;;;;;;;4997242;28;20202;-76
2022/11/26 05:42:01;;;;;;;75.97;37.70;;;;;;;;;;4997706;28;20179;-76
2022/11/26 05:44:27;;;;;;;93.33;41.60;;;;;;;;;;4983129;28;20180;-76
2022/11/26 05:46:53;;;;;;;85.10;39.97;;;;;;;;;;5005852;28;20215;-76
2022/11/26 05:49:19;;;;;;;93.63;40.97;;;;;;;;;;5002227;28;20183;-76
2022/11/26 05:51:45;;;;;;;80.67;38.87;;;;;;;;;;5012676;28;20641;-77
2022/11/26 05:54:12;;;;;;;86.20;40.10;;;;;;;;;;4993490;28;20180;-77
2022/11/26 05:56:38;;;;;;;87.87;39.97;;;;;;;;;;4992181;28;20187;-76
2022/11/26 05:59:04;;;;;;;83.03;38.17;;;;;;;;;;5012588;28;20190;-76
2022/11/26 06:01:30;;;;;;;78.70;38.53;;;;;;;;;;5012174;28;20187;-75
2022/11/26 06:03:56;;;;;;;88.13;40.97;;;;;;;;;;5012636;28;20190;-76
2022/11/26 06:06:23;;;;;;;101.77;42.97;;;;;;;;;;4992989;28;20696;-78
2022/11/26 06:08:49;;;;;;;106.20;43.43;;;;;;;;;;5005884;28;20188;-76
2022/11/26 06:11:15;;;;;;;90.73;40.33;;;;;;;;;;5003748;28;20210;-76
2022/11/26 06:13:41;;;;;;;86.20;38.43;;;;;;;;;;5000012;28;20207;-76
2022/11/26 06:16:08;;;;;;;97.53;41.50;;;;;;;;;;4999751;28;20229;-77
2022/11/26 06:18:36;;;;;;;94.03;40.10;;;;;;;;;;5028021;28;20182;-77
2022/11/26 06:21:02;;;;;;;88.53;39.83;;;;;;;;;;4996963;28;20561;-76
2022/11/26 06:23:28;;;;;;;94.43;40.70;;;;;;;;;;5011211;28;20223;-77
2022/11/26 06:25:54;;;;;;;87.93;39.13;;;;;;;;;;4986904;28;20546;-77
2022/11/26 06:28:20;;;;;;;92.30;40.07;;;;;;;;;;5000947;28;20191;-77
2022/11/26 06:30:46;;;;;;;97.20;40.97;;;;;;;;;;4993093;28;20211;-76
2022/11/26 06:33:12;;;;;;;95.67;40.93;;;;;;;;;;5013253;28;20599;-77
2022/11/26 06:35:38;;;;;;;119.37;44.97;;;;;;;;;;4980494;28;20549;-77
2022/11/26 06:38:04;;;;;;;98.30;40.60;;;;;;;;;;5006092;28;20180;-76
2022/11/26 06:40:31;;;;;;;92.20;39.70;;;;;;;;;;5010912;28;20190;-76
2022/11/26 06:42:57;;;;;;;98.93;39.87;;;;;;;;;;4995298;28;20194;-76
2022/11/26 06:45:23;;;;;;;96.70;39.47;;;;;;;;;;4980851;28;20210;-77
2022/11/26 06:47:50;;;;;;;89.40;39.77;;;;;;;;;;5012212;28;20175;-76
2022/11/26 06:50:17;;;;;;;88.67;39.37;;;;;;;;;;5011673;28;20324;-75
2022/11/26 06:52:43;;;;;;;91.00;41.10;;;;;;;;;;4988557;28;20285;-77
2022/11/26 06:55:09;;;;;;;93.07;40.67;;;;;;;;;;4997702;28;20282;-76
2022/11/26 06:57:35;;;;;;;106.53;41.53;;;;;;;;;;4978075;28;20638;-75
2022/11/26 07:00:01;;;;;;;102.73;43.57;;;;;;;;;;4992535;28;20179;-76
2022/11/26 07:02:27;;;;;;;99.60;43.70;;;;;;;;;;5011682;28;20190;-76
2022/11/26 07:04:53;;;;;;;99.43;41.63;;;;;;;;;;4987207;28;20190;-76
2022/11/26 07:07:20;;;;;;;116.37;43.47;;;;;;;;;;4999293;28;20270;-76
2022/11/26 07:09:46;;;;;;;115.67;46.70;;;;;;;;;;5011597;28;20183;-77
2022/11/26 07:12:12;;;;;;;119.17;47.50;;;;;;;;;;4995641;28;20207;-76
2022/11/26 07:14:38;;;;;;;106.80;44.07;;;;;;;;;;4981680;28;20593;-76
2022/11/26 07:17:04;;;;;;;113.20;46.63;;;;;;;;;;5005938;28;20275;-77
2022/11/26 07:19:30;;;;;;;124.00;46.70;;;;;;;;;;4990210;28;20666;-76
2022/11/26 07:21:56;;;;;;;98.07;42.83;;;;;;;;;;4994592;28;20266;-76
2022/11/26 07:24:22;;;;;;;111.80;41.80;;;;;;;;;;4988862;28;20641;-77
2022/11/26 07:26:48;;;;;;;96.03;44.47;;;;;;;;;;4990243;28;20249;-76
2022/11/26 07:29:14;;;;;;;112.10;48.43;;;;;;;;;;4985472;28;20191;-77
2022/11/26 07:31:40;;;;;;;116.77;46.90;;;;;;;;;;5000189;28;20187;-76
2022/11/26 07:34:06;;;;;;;121.97;49.93;;;;;;;;;;5008096;28;20184;-76
2022/11/26 07:36:33;;;;;;;105.27;46.93;;;;;;;;;;4995083;28;20551;-75
2022/11/26 07:39:00;;;;;;;109.87;46.10;;;;;;;;;;4992981;28;20187;-76
2022/11/26 07:41:27;;;;;;;124.97;45.87;;;;;;;;;;5011073;28;20526;-76
2022/11/26 07:43:53;;;;;;;102.27;44.13;;;;;;;;;;4987676;28;20183;-77
2022/11/26 07:46:21;;;;;;;106.63;47.17;;;;;;;;;;5002206;28;20507;-77
2022/11/26 07:48:47;;;;;;;116.83;48.90;;;;;;;;;;4992675;28;20207;-76
2022/11/26 07:51:16;;;;;;;110.43;45.83;;;;;;;;;;5010968;28;20650;-76
2022/11/26 07:53:42;;;;;;;106.03;44.13;;;;;;;;;;5010626;28;20709;-76
2022/11/26 07:56:09;;;;;;;108.20;44.30;;;;;;;;;;5011259;28;20706;-77
2022/11/26 07:58:35;;;;;;;114.27;47.33;;;;;;;;;;5010663;28;20651;-77
2022/11/26 08:01:08;;;;;;;100.67;43.80;;;;;;;;;;5010600;28;20183;-77
2022/11/26 08:03:37;;;;;;;118.63;46.90;;;;;;;;;;4995166;28;20648;-76
2022/11/26 08:06:05;;;;;;;119.23;47.57;;;;;;;;;;5010690;28;20206;-77
2022/11/26 08:08:32;;;;;;;114.50;48.13;;;;;;;;;;5010823;28;20185;-77
2022/11/26 08:10:58;;;;;;;104.37;47.70;;;;;;;;;;4986146;28;20191;-77
2022/11/26 08:13:24;;;;;;;129.43;50.77;;;;;;;;;;4997415;28;20663;-77
2022/11/26 08:15:50;;;;;;;116.60;48.57;;;;;;;;;;4994654;28;20218;-76
2022/11/26 08:18:16;;;;;;;110.60;47.37;;;;;;;;;;5013242;28;20206;-77
2022/11/26 08:20:42;;;;;;;111.40;48.30;;;;;;;;;;5001002;28;20274;-77
2022/11/26 08:23:08;;;;;;;117.37;50.53;;;;;;;;;;4999589;28;20268;-76
2022/11/26 08:25:35;;;;;;;106.57;47.63;;;;;;;;;;4999121;28;20282;-77
2022/11/26 08:28:01;;;;;;;113.50;47.73;;;;;;;;;;4992400;28;20540;-77
2022/11/26 08:30:27;;;;;;;95.13;43.70;;;;;;;;;;4994014;28;20171;-76
2022/11/26 08:32:53;;;;;;;90.33;41.23;;;;;;;;;;4980631;28;20183;-76
2022/11/26 08:35:19;;;;;;;89.03;39.60;;;;;;;;;;5000633;28;20210;-77
2022/11/26 08:37:45;;;;;;;91.00;40.70;;;;;;;;;;4999776;28;20257;-76
2022/11/26 08:40:11;;;;;;;77.97;37.13;;;;;;;;;;4991512;28;20273;-77
2022/11/26 08:42:37;;;;;;;76.27;35.07;;;;;;;;;;4991352;28;20176;-77
2022/11/26 08:45:03;;;;;;;83.33;36.67;;;;;;;;;;4998162;28;20175;-77
2022/11/26 08:47:29;;;;;;;81.20;35.17;;;;;;;;;;5000275;28;20534;-76
2022/11/26 08:49:55;;;;;;;82.77;35.90;;;;;;;;;;5003643;28;20537;-76
2022/11/26 08:52:21;;;;;;;82.50;35.70;;;;;;;;;;4993980;28;20190;-76
2022/11/26 08:54:47;;;;;;;86.50;38.37;;;;;;;;;;4994134;28;20590;-76
2022/11/26 08:57:13;;;;;;;87.00;38.60;;;;;;;;;;5014227;28;20171;-77
2022/11/26 08:59:39;;;;;;;74.33;35.67;;;;;;;;;;4985554;28;20194;-75
2022/11/26 09:02:05;;;;;;;77.87;36.37;;;;;;;;;;5006793;28;20183;-76
2022/11/26 09:04:31;;;;;;;82.50;34.43;;;;;;;;;;5001265;28;20183;-76
2022/11/26 09:06:57;;;;;;;92.33;40.33;;;;;;;;;;4992554;28;20312;-76
2022/11/26 09:09:24;;;;;;;86.93;39.20;;;;;;;;;;4996215;28;20211;-76
2022/11/26 09:11:53;;;;;;;83.80;38.63;;;;;;;;;;4992985;28;20183;-77
2022/11/26 09:14:20;;;;;;;83.67;36.57;;;;;;;;;;5008643;28;20184;-76
2022/11/26 09:16:46;;;;;;;88.90;38.80;;;;;;;;;;5005090;28;20187;-76
2022/11/26 09:19:13;;;;;;;80.93;36.30;;;;;;;;;;5013875;28;20190;-77
2022/11/26 09:21:39;;;;;;;80.33;36.37;;;;;;;;;;5014317;28;20240;-75
2022/11/26 09:24:06;;;;;;;77.17;36.30;;;;;;;;;;4992168;28;20743;-73
2022/11/26 09:26:33;;;;;;;76.10;35.90;;;;;;;;;;4973555;28;20223;-75
2022/11/26 09:28:59;;;;;;;78.43;36.33;;;;;;;;;;4993687;28;20230;-76
2022/11/26 09:31:25;;;;;;;88.30;36.83;;;;;;;;;;4993869;28;20184;-75
2022/11/26 09:33:51;;;;;;;71.07;33.20;;;;;;;;;;4976000;28;20187;-74
2022/11/26 09:36:18;;;;;;;78.07;34.17;;;;;;;;;;4994120;28;20226;-75
2022/11/26 09:38:44;;;;;;;78.97;36.10;;;;;;;;;;4972833;28;20188;-75
2022/11/26 09:41:22;;;;;;;77.70;36.67;;;;;;;;;;4974917;28;20188;-75
2022/11/26 09:44:02;;;;;;;77.00;36.40;;;;;;;;;;4994040;28;20278;-75
2022/11/26 09:46:33;;;;;;;78.93;36.10;;;;;;;;;;4992181;28;20219;-75
2022/11/26 09:49:00;;;;;;;75.30;35.17;;;;;;;;;;4976154;28;20176;-75
2022/11/26 09:51:26;;;;;;;75.27;36.40;;;;;;;;;;4992286;28;20239;-76
2022/11/26 09:53:53;;;;;;;75.33;36.60;;;;;;;;;;4983860;28;20649;-75
2022/11/26 09:56:23;;;;;;;74.97;35.97;;;;;;;;;;4997617;28;20223;-75
2022/11/26 09:58:49;;;;;;;69.90;34.60;;;;;;;;;;5006512;28;20188;-75
2022/11/26 10:01:17;;;;;;;70.33;35.83;;;;;;;;;;5006610;28;20233;-75
2022/11/26 10:03:43;;;;;;;73.23;38.70;;;;;;;;;;5003569;28;20180;-75
2022/11/26 10:06:18;;;;;;;65.53;36.83;;;;;;;;;;4984986;28;20400;-75
2022/11/26 10:08:59;;;;;;;68.87;35.93;;;;;;;;;;4986663;28;20187;-75
2022/11/26 10:11:32;;;;;;;78.03;37.80;;;;;;;;;;4982150;28;20211;-75
2022/11/26 10:14:06;;;;;;;75.77;36.80;;;;;;;;;;4996926;28;20203;-76
2022/11/26 10:16:37;;;;;;;65.30;35.40;;;;;;;;;;5003181;28;20318;-75
2022/11/26 10:19:04;;;;;;;66.27;35.40;;;;;;;;;;5005394;28;20168;-75
2022/11/26 10:22:02;;;;;;;68.23;36.63;;;;;;;;;;5004814;28;20262;-75
2022/11/26 10:24:30;;;;;;;75.40;37.43;;;;;;;;;;4946807;29;20197;-75
2022/11/26 10:26:57;;;;;;;77.77;37.27;;;;;;;;;;4939493;29;20924;-75
2022/11/26 10:29:27;;;;;;;78.13;38.83;;;;;;;;;;4930611;29;20194;-75
2022/11/26 10:31:56;;;;;;;69.50;36.10;;;;;;;;;;4928517;29;20231;-75
2022/11/26 10:34:29;;;;;;;73.63;36.63;;;;;;;;;;4914619;29;20281;-75
2022/11/26 10:36:55;;;;;;;73.80;36.30;;;;;;;;;;4931212;29;20651;-75
2022/11/26 10:39:21;;;;;;;79.17;38.47;;;;;;;;;;4919135;29;20239;-76
2022/11/26 10:41:47;;;;;;;73.83;36.57;;;;;;;;;;4929162;29;20201;-75
2022/11/26 10:44:32;;;;;;;71.73;37.70;;;;;;;;;;4939636;29;20241;-74
2022/11/26 10:46:58;;;;;;;81.70;38.73;;;;;;;;;;4929657;29;20702;-74
2022/11/26 10:49:29;;;;;;;74.27;36.37;;;;;;;;;;4931159;29;20189;-75
2022/11/26 10:52:00;;;;;;;71.80;37.37;;;;;;;;;;4929159;29;20186;-75
2022/11/26 10:54:33;;;;;;;75.03;36.47;;;;;;;;;;4902963;29;20277;-75
2022/11/26 10:57:05;;;;;;;71.03;34.80;;;;;;;;;;4925821;29;20249;-75
2022/11/26 10:59:35;;;;;;;63.07;32.00;;;;;;;;;;4944317;28;20210;-75
2022/11/26 11:02:03;;;;;;;64.13;30.70;;;;;;;;;;4974566;28;20192;-75
2022/11/26 11:04:30;;;;;;;61.90;31.53;;;;;;;;;;4990120;28;20183;-75
2022/11/26 11:06:57;;;;;;;55.97;31.17;;;;;;;;;;4991016;28;20301;-76
2022/11/26 11:09:25;;;;;;;59.90;31.57;;;;;;;;;;4979235;28;20184;-75
2022/11/26 11:12:23;;;;;;;53.47;29.73;;;;;;;;;;4989462;28;20538;-76
2022/11/26 11:14:50;;;;;;;59.27;29.90;;;;;;;;;;4889479;29;20203;-75
2022/11/26 11:17:22;;;;;;;59.40;31.80;;;;;;;;;;4891179;29;20273;-75
2022/11/26 11:19:48;;;;;;;59.20;31.67;;;;;;;;;;4892641;29;20209;-75
2022/11/26 11:22:19;;;;;;;56.87;30.83;;;;;;;;;;4896406;29;20245;-75
2022/11/26 11:24:45;;;;;;;53.67;29.10;;;;;;;;;;4911752;29;20194;-74
2022/11/26 11:27:22;;;;;;;55.30;30.60;;;;;;;;;;4911765;29;20226;-73
2022/11/26 11:29:50;;;;;;;57.93;31.27;;;;;;;;;;4904680;29;20194;-75
2022/11/26 11:32:33;;;;;;;56.87;31.63;;;;;;;;;;4911731;29;20251;-75
2022/11/26 11:35:12;;;;;;;59.50;32.20;;;;;;;;;;4908975;29;20719;-75
2022/11/26 11:37:47;;;;;;;59.67;31.60;;;;;;;;;;4895064;29;20691;-76
2022/11/26 11:40:14;;;;;;;51.60;29.97;;;;;;;;;;4895836;29;20682;-74
2022/11/26 11:42:40;;;;;;;49.40;27.57;;;;;;;;;;4899946;29;20672;-75
2022/11/26 11:45:16;;;;;;;52.93;28.60;;;;;;;;;;4906122;29;20526;-74
2022/11/26 11:47:43;;;;;;;56.47;28.57;;;;;;;;;;4907960;29;20202;-76
2022/11/26 11:50:12;;;;;;;55.17;29.20;;;;;;;;;;4950949;28;20656;-74
2022/11/26 11:52:41;;;;;;;63.30;32.20;;;;;;;;;;5007442;28;20260;-75
2022/11/26 11:55:10;;;;;;;58.73;31.23;;;;;;;;;;4992637;28;20167;-74
2022/11/26 11:57:55;;;;;;;58.40;31.40;;;;;;;;;;5010098;28;20532;-74
2022/11/26 12:00:22;;;;;;;58.07;30.60;;;;;;;;;;5010116;28;20660;-76
2022/11/26 12:02:51;;;;;;;53.40;30.73;;;;;;;;;;5009127;28;20262;-75
2022/11/26 12:05:24;;;;;;;60.53;30.67;;;;;;;;;;5010024;28;20246;-74
2022/11/26 12:07:56;;;;;;;60.77;31.53;;;;;;;;;;5006622;28;20286;-75
2022/11/26 12:10:25;;;;;;;50.80;29.53;;;;;;;;;;4993447;28;20683;-75
2022/11/26 12:13:01;;;;;;;52.33;29.17;;;;;;;;;;5011265;28;20269;-76
2022/11/26 12:15:27;;;;;;;57.13;30.53;;;;;;;;;;5011214;28;20187;-75
2022/11/26 12:18:22;;;;;;;58.47;31.47;;;;;;;;;;5002889;28;20198;-75
2022/11/26 12:21:01;;;;;;;53.87;28.93;;;;;;;;;;4940172;28;20545;-75
2022/11/26 12:23:29;;;;;;;55.63;29.80;;;;;;;;;;4950797;28;20224;-75
2022/11/26 12:26:05;;;;;;;55.93;30.47;;;;;;;;;;4940860;28;20316;-75
2022/11/26 12:28:33;;;;;;;52.70;29.43;;;;;;;;;;4936925;28;20709;-75
2022/11/26 12:31:31;;;;;;;56.53;29.30;;;;;;;;;;4934981;29;20192;-74
2022/11/26 12:34:00;;;;;;;52.53;29.03;;;;;;;;;;4950484;28;20207;-75
2022/11/26 12:36:34;;;;;;;54.23;30.40;;;;;;;;;;4950760;28;20287;-75
2022/11/26 12:39:06;;;;;;;52.60;31.00;;;;;;;;;;4946420;29;20292;-76
2022/11/26 12:41:32;;;;;;;52.17;29.70;;;;;;;;;;4929372;29;20250;-75
2022/11/26 12:44:01;;;;;;;61.13;33.07;;;;;;;;;;4944204;28;20189;-75
2022/11/26 12:46:34;;;;;;;56.80;32.20;;;;;;;;;;4947332;28;20217;-75
2022/11/26 12:49:03;;;;;;;56.90;32.23;;;;;;;;;;4935684;29;20196;-76
2022/11/26 12:51:32;;;;;;;55.93;31.93;;;;;;;;;;4936255;28;20185;-75
2022/11/26 12:54:03;;;;;;;63.67;33.63;;;;;;;;;;4957465;28;20654;-75
2022/11/26 12:56:36;;;;;;;60.23;33.43;;;;;;;;;;4939723;28;20208;-76
2022/11/26 12:59:09;;;;;;;56.27;30.77;;;;;;;;;;4960772;28;20209;-75
2022/11/26 13:01:35;;;;;;;61.47;33.27;;;;;;;;;;4974048;28;20243;-78
2022/11/26 13:04:02;;;;;;;55.90;34.30;;;;;;;;;;4973680;28;20184;-78
2022/11/26 13:06:43;;;;;;;63.47;34.57;;;;;;;;;;4974147;28;20775;-77
2022/11/26 13:09:38;;;;;;;59.40;34.10;;;;;;;;;;4981379;28;20431;-78
2022/11/26 13:12:10;;;;;;;57.23;33.40;;;;;;;;;;4982484;28;20193;-79
2022/11/26 13:14:43;;;;;;;53.50;32.90;;;;;;;;;;5009509;28;20277;-77
2022/11/26 13:17:14;;;;;;;63.87;33.57;;;;;;;;;;5008293;28;20194;-77
2022/11/26 13:19:40;;;;;;;60.20;34.63;;;;;;;;;;4987377;28;20253;-77
2022/11/26 13:22:25;;;;;;;59.03;34.00;;;;;;;;;;4995070;28;20223;-77
2022/11/26 13:24:59;;;;;;;60.17;32.67;;;;;;;;;;5005545;28;20175;-77
2022/11/26 13:27:41;;;;;;;59.67;33.90;;;;;;;;;;4990923;28;20202;-77
2022/11/26 13:30:07;;;;;;;59.80;34.07;;;;;;;;;;5002571;28;20190;-77
2022/11/26 13:32:52;;;;;;;64.40;36.27;;;;;;;;;;4997839;28;20652;-76
2022/11/26 13:35:18;;;;;;;65.30;37.00;;;;;;;;;;5009044;28;20190;-76
2022/11/26 13:37:57;;;;;;;63.43;33.53;;;;;;;;;;5002499;28;20511;-76
2022/11/26 13:40:26;;;;;;;65.37;34.60;;;;;;;;;;5008403;28;20330;-76
2022/11/26 13:42:55;;;;;;;65.40;35.70;;;;;;;;;;5012611;28;20186;-79
2022/11/26 13:45:44;;;;;;;61.73;34.27;;;;;;;;;;5006256;28;20219;-77
2022/11/26 13:48:15;;;;;;;67.27;36.00;;;;;;;;;;4993346;28;20183;-77
2022/11/26 13:50:57;;;;;;;69.07;36.13;;;;;;;;;;5008478;28;20215;-78
2022/11/26 13:53:30;;;;;;;63.47;33.73;;;;;;;;;;5011285;28;20179;-79
2022/11/26 13:56:01;;;;;;;72.80;34.53;;;;;;;;;;4992303;28;20239;-77
2022/11/26 13:58:34;;;;;;;63.53;36.20;;;;;;;;;;4992325;28;20629;-77
2022/11/26 14:01:19;;;;;;;63.97;35.13;;;;;;;;;;5004283;28;20182;-76
2022/11/26 14:03:46;;;;;;;77.10;38.13;;;;;;;;;;4997313;28;20242;-76
2022/11/26 14:06:12;;;;;;;69.47;37.17;;;;;;;;;;5006756;28;20222;-75
2022/11/26 14:08:38;;;;;;;70.87;36.70;;;;;;;;;;5006848;28;20238;-77
2022/11/26 14:11:05;;;;;;;77.97;37.40;;;;;;;;;;4992038;28;20187;-76
2022/11/26 14:13:31;;;;;;;71.60;36.23;;;;;;;;;;4995080;28;20168;-76
2022/11/26 14:16:05;;;;;;;69.97;36.73;;;;;;;;;;4992945;28;20171;-78
2022/11/26 14:18:50;;;;;;;82.87;38.50;;;;;;;;;;4995303;28;20183;-78
2022/11/26 14:21:20;;;;;;;74.90;36.27;;;;;;;;;;5002927;28;20183;-80
2022/11/26 14:23:47;;;;;;;79.00;39.17;;;;;;;;;;4989893;28;20711;-80